sensor_id;sensor_type;location;lat;lon;timestamp;temperature;humidity
18240;DHT22;9244;50.828;4.718;2023-07-02T00:00:59;15.90;99.90
18240;DHT22;9244;50.828;4.718;2023-07-02T00:03:24;15.90;99.90
18240;DHT22;9244;50.828;4.718;2023-07-02T00:05:50;15.90;99.90
18240;DHT22;9244;50.828;4.718;2023-07-02T00:08:21;15.90;99.90
18240;DHT22;9244;50.828;4.718;2023-07-02T00:10:47;15.80;99.90
18240;DHT22;9244;50.828;4.718;2023-07-02T00:13:12;15.80;99.90
18240;DHT22;9244;50.828;4.718;2023-07-02T00:15:38;15.80;99.90
18240;DHT22;9244;50.828;4.718;2023-07-02T00:18:04;15.80;99.90
18240;DHT22;9244;50.828;4.718;2023-07-02T00:20:29;15.70;99.90
18240;DHT22;9244;50.828;4.718;2023-07-02T00:22:55;15.70;99.90
18240;DHT22;9244;50.828;4.718;2023-07-02T00:25:22;15.70;99.90
18240;DHT22;9244;50.828;4.718;2023-07-02T00:27:47;15.70;99.90
18240;DHT22;9244;50.828;4.718;2023-07-02T00:30:13;15.60;99.90
18240;DHT22;9244;50.828;4.718;2023-07-02T00:32:39;15.60;99.90
18240;DHT22;9244;50.828;4.718;2023-07-02T00:35:05;15.60;99.90
18240;DHT22;9244;50.828;4.718;2023-07-02T00:37:31;15.60;99.90
18240;DHT22;9244;50.828;4.718;2023-07-02T00:39:57;15.60;99.90
18240;DHT22;9244;50.828;4.718;2023-07-02T00:42:23;15.60;99.90
18240;DHT22;9244;50.828;4.718;2023-07-02T00:44:49;15.60;99.90
18240;DHT22;9244;50.828;4.718;2023-07-02T00:47:17;15.60;99.90
18240;DHT22;9244;50.828;4.718;2023-07-02T00:49:43;15.50;99.90
18240;DHT22;9244;50.828;4.718;2023-07-02T00:52:09;15.50;99.90
18240;DHT22;9244;50.828;4.718;2023-07-02T00:54:36;15.50;99.90
18240;DHT22;9244;50.828;4.718;2023-07-02T00:57:02;15.50;99.90
18240;DHT22;9244;50.828;4.718;2023-07-02T00:59:30;15.40;99.90
18240;DHT22;9244;50.828;4.718;2023-07-02T01:01:56;15.40;99.90
18240;DHT22;9244;50.828;4.718;2023-07-02T01:04:22;15.40;99.90
18240;DHT22;9244;50.828;4.718;2023-07-02T01:06:53;15.40;99.90
18240;DHT22;9244;50.828;4.718;2023-07-02T01:09:23;15.40;99.90
18240;DHT22;9244;50.828;4.718;2023-07-02T01:11:57;15.40;99.90
18240;DHT22;9244;50.828;4.718;2023-07-02T01:14:30;15.40;99.90
18240;DHT22;9244;50.828;4.718;2023-07-02T01:16:57;15.40;99.90
18240;DHT22;9244;50.828;4.718;2023-07-02T01:22:01;15.40;99.90
18240;DHT22;9244;50.828;4.718;2023-07-02T01:24:27;15.40;99.90
18240;DHT22;9244;50.828;4.718;2023-07-02T01:26:53;15.30;99.90
18240;DHT22;9244;50.828;4.718;2023-07-02T01:29:20;15.40;99.90
18240;DHT22;9244;50.828;4.718;2023-07-02T01:31:47;15.40;99.90
18240;DHT22;9244;50.828;4.718;2023-07-02T01:34:13;15.40;99.90
18240;DHT22;9244;50.828;4.718;2023-07-02T01:36:39;15.40;99.90
18240;DHT22;9244;50.828;4.718;2023-07-02T01:39:06;15.40;99.90
18240;DHT22;9244;50.828;4.718;2023-07-02T01:41:44;15.30;99.90
18240;DHT22;9244;50.828;4.718;2023-07-02T01:44:09;15.40;99.90
18240;DHT22;9244;50.828;4.718;2023-07-02T01:46:36;15.40;99.90
18240;DHT22;9244;50.828;4.718;2023-07-02T01:49:01;15.50;99.90
18240;DHT22;9244;50.828;4.718;2023-07-02T01:51:27;15.50;99.90
18240;DHT22;9244;50.828;4.718;2023-07-02T01:53:52;15.40;99.90
18240;DHT22;9244;50.828;4.718;2023-07-02T01:56:18;15.50;99.90
18240;DHT22;9244;50.828;4.718;2023-07-02T01:58:44;15.50;99.90
18240;DHT22;9244;50.828;4.718;2023-07-02T02:01:09;15.50;99.90
18240;DHT22;9244;50.828;4.718;2023-07-02T02:03:35;15.50;99.90
18240;DHT22;9244;50.828;4.718;2023-07-02T02:06:01;15.50;99.90
18240;DHT22;9244;50.828;4.718;2023-07-02T02:08:26;15.50;99.90
18240;DHT22;9244;50.828;4.718;2023-07-02T02:10:52;15.50;99.90
18240;DHT22;9244;50.828;4.718;2023-07-02T02:13:17;15.60;99.90
18240;DHT22;9244;50.828;4.718;2023-07-02T02:15:43;15.50;99.90
18240;DHT22;9244;50.828;4.718;2023-07-02T02:18:08;15.50;99.90
18240;DHT22;9244;50.828;4.718;2023-07-02T02:20:34;15.50;99.90
18240;DHT22;9244;50.828;4.718;2023-07-02T02:23:00;15.50;99.90
18240;DHT22;9244;50.828;4.718;2023-07-02T02:25:25;15.50;99.90
18240;DHT22;9244;50.828;4.718;2023-07-02T02:27:51;15.40;99.90
18240;DHT22;9244;50.828;4.718;2023-07-02T02:30:17;15.40;99.90
18240;DHT22;9244;50.828;4.718;2023-07-02T02:32:42;15.40;99.90
18240;DHT22;9244;50.828;4.718;2023-07-02T02:35:08;15.40;99.90
18240;DHT22;9244;50.828;4.718;2023-07-02T02:37:36;15.40;99.90
18240;DHT22;9244;50.828;4.718;2023-07-02T02:40:03;15.30;99.90
18240;DHT22;9244;50.828;4.718;2023-07-02T02:42:31;15.30;99.90
18240;DHT22;9244;50.828;4.718;2023-07-02T02:44:56;15.30;99.90
18240;DHT22;9244;50.828;4.718;2023-07-02T02:47:22;15.30;99.90
18240;DHT22;9244;50.828;4.718;2023-07-02T02:49:47;15.40;99.90
18240;DHT22;9244;50.828;4.718;2023-07-02T02:52:13;15.30;99.90
18240;DHT22;9244;50.828;4.718;2023-07-02T02:54:40;15.20;99.90
18240;DHT22;9244;50.828;4.718;2023-07-02T02:57:05;15.20;99.90
18240;DHT22;9244;50.828;4.718;2023-07-02T02:59:31;15.20;99.90
18240;DHT22;9244;50.828;4.718;2023-07-02T03:01:56;15.10;99.90
18240;DHT22;9244;50.828;4.718;2023-07-02T03:04:22;15.10;99.90
18240;DHT22;9244;50.828;4.718;2023-07-02T03:06:51;15.10;99.90
18240;DHT22;9244;50.828;4.718;2023-07-02T03:09:17;15.10;99.90
18240;DHT22;9244;50.828;4.718;2023-07-02T03:11:43;15.00;99.90
18240;DHT22;9244;50.828;4.718;2023-07-02T03:14:09;14.90;99.90
18240;DHT22;9244;50.828;4.718;2023-07-02T03:16:34;14.90;99.90
18240;DHT22;9244;50.828;4.718;2023-07-02T03:19:00;14.90;99.90
18240;DHT22;9244;50.828;4.718;2023-07-02T03:21:25;14.90;99.90
18240;DHT22;9244;50.828;4.718;2023-07-02T03:23:51;14.90;99.90
18240;DHT22;9244;50.828;4.718;2023-07-02T03:26:17;14.90;99.90
18240;DHT22;9244;50.828;4.718;2023-07-02T03:28:43;14.90;99.90
18240;DHT22;9244;50.828;4.718;2023-07-02T03:31:09;14.90;99.90
18240;DHT22;9244;50.828;4.718;2023-07-02T03:33:34;14.90;99.90
18240;DHT22;9244;50.828;4.718;2023-07-02T03:36:00;14.90;99.90
18240;DHT22;9244;50.828;4.718;2023-07-02T03:38:26;14.90;99.90
18240;DHT22;9244;50.828;4.718;2023-07-02T03:40:51;14.90;99.90
18240;DHT22;9244;50.828;4.718;2023-07-02T03:43:17;14.90;99.90
18240;DHT22;9244;50.828;4.718;2023-07-02T03:45:42;14.80;99.90
18240;DHT22;9244;50.828;4.718;2023-07-02T03:48:08;14.80;99.90
18240;DHT22;9244;50.828;4.718;2023-07-02T03:50:34;14.80;99.90
18240;DHT22;9244;50.828;4.718;2023-07-02T03:52:59;14.80;99.90
18240;DHT22;9244;50.828;4.718;2023-07-02T03:55:25;14.80;99.90
18240;DHT22;9244;50.828;4.718;2023-07-02T03:57:50;14.80;99.90
18240;DHT22;9244;50.828;4.718;2023-07-02T04:00:16;14.80;99.90
18240;DHT22;9244;50.828;4.718;2023-07-02T04:02:42;14.80;99.90
18240;DHT22;9244;50.828;4.718;2023-07-02T04:05:07;14.80;99.90
18240;DHT22;9244;50.828;4.718;2023-07-02T04:07:33;14.80;99.90
18240;DHT22;9244;50.828;4.718;2023-07-02T04:09:59;14.90;99.90
18240;DHT22;9244;50.828;4.718;2023-07-02T04:12:26;14.80;99.90
18240;DHT22;9244;50.828;4.718;2023-07-02T04:14:51;14.80;99.90
18240;DHT22;9244;50.828;4.718;2023-07-02T04:17:17;14.80;99.90
18240;DHT22;9244;50.828;4.718;2023-07-02T04:19:42;14.90;99.90
18240;DHT22;9244;50.828;4.718;2023-07-02T04:22:08;14.90;99.90
18240;DHT22;9244;50.828;4.718;2023-07-02T04:24:34;15.00;99.90
18240;DHT22;9244;50.828;4.718;2023-07-02T04:26:59;14.90;99.90
18240;DHT22;9244;50.828;4.718;2023-07-02T04:29:25;15.00;99.90
18240;DHT22;9244;50.828;4.718;2023-07-02T04:31:50;14.90;99.90
18240;DHT22;9244;50.828;4.718;2023-07-02T04:34:16;15.00;99.90
18240;DHT22;9244;50.828;4.718;2023-07-02T04:36:43;15.00;99.90
18240;DHT22;9244;50.828;4.718;2023-07-02T04:39:09;14.90;99.90
18240;DHT22;9244;50.828;4.718;2023-07-02T04:41:36;15.00;99.90
18240;DHT22;9244;50.828;4.718;2023-07-02T04:44:01;15.00;99.90
18240;DHT22;9244;50.828;4.718;2023-07-02T04:46:27;15.10;99.90
18240;DHT22;9244;50.828;4.718;2023-07-02T04:48:53;15.10;99.90
18240;DHT22;9244;50.828;4.718;2023-07-02T04:51:20;15.20;99.90
18240;DHT22;9244;50.828;4.718;2023-07-02T04:53:46;15.20;99.90
18240;DHT22;9244;50.828;4.718;2023-07-02T04:56:12;15.20;99.90
18240;DHT22;9244;50.828;4.718;2023-07-02T04:58:37;15.10;99.90
18240;DHT22;9244;50.828;4.718;2023-07-02T05:01:03;15.10;99.90
18240;DHT22;9244;50.828;4.718;2023-07-02T05:03:30;15.10;99.90
18240;DHT22;9244;50.828;4.718;2023-07-02T05:05:55;15.30;99.90
18240;DHT22;9244;50.828;4.718;2023-07-02T05:08:21;15.30;99.90
18240;DHT22;9244;50.828;4.718;2023-07-02T05:10:47;15.50;99.90
18240;DHT22;9244;50.828;4.718;2023-07-02T05:13:13;15.70;99.90
18240;DHT22;9244;50.828;4.718;2023-07-02T05:15:40;15.70;99.90
18240;DHT22;9244;50.828;4.718;2023-07-02T05:18:05;15.70;99.90
18240;DHT22;9244;50.828;4.718;2023-07-02T05:20:32;15.70;99.90
18240;DHT22;9244;50.828;4.718;2023-07-02T05:22:57;15.80;99.90
18240;DHT22;9244;50.828;4.718;2023-07-02T05:25:23;15.70;99.90
18240;DHT22;9244;50.828;4.718;2023-07-02T05:27:49;15.80;99.90
18240;DHT22;9244;50.828;4.718;2023-07-02T05:30:14;15.80;99.90
18240;DHT22;9244;50.828;4.718;2023-07-02T05:32:40;15.80;99.90
18240;DHT22;9244;50.828;4.718;2023-07-02T05:35:06;15.70;99.90
18240;DHT22;9244;50.828;4.718;2023-07-02T05:37:32;15.80;99.90
18240;DHT22;9244;50.828;4.718;2023-07-02T05:39:57;15.90;99.90
18240;DHT22;9244;50.828;4.718;2023-07-02T05:42:23;16.20;99.90
18240;DHT22;9244;50.828;4.718;2023-07-02T05:44:49;16.50;99.90
18240;DHT22;9244;50.828;4.718;2023-07-02T05:47:15;16.50;99.90
18240;DHT22;9244;50.828;4.718;2023-07-02T05:49:42;16.30;99.90
18240;DHT22;9244;50.828;4.718;2023-07-02T05:52:08;16.30;99.90
18240;DHT22;9244;50.828;4.718;2023-07-02T05:54:33;16.20;99.90
18240;DHT22;9244;50.828;4.718;2023-07-02T05:56:59;16.10;99.90
18240;DHT22;9244;50.828;4.718;2023-07-02T05:59:25;16.10;99.90
18240;DHT22;9244;50.828;4.718;2023-07-02T06:01:50;16.60;99.90
18240;DHT22;9244;50.828;4.718;2023-07-02T06:04:16;17.10;99.90
18240;DHT22;9244;50.828;4.718;2023-07-02T06:06:42;17.10;99.90
18240;DHT22;9244;50.828;4.718;2023-07-02T06:09:07;17.10;99.90
18240;DHT22;9244;50.828;4.718;2023-07-02T06:11:34;16.90;99.90
18240;DHT22;9244;50.828;4.718;2023-07-02T06:14:00;16.80;99.90
18240;DHT22;9244;50.828;4.718;2023-07-02T06:16:25;16.90;99.90
18240;DHT22;9244;50.828;4.718;2023-07-02T06:18:51;17.00;99.90
18240;DHT22;9244;50.828;4.718;2023-07-02T06:21:17;17.50;99.90
18240;DHT22;9244;50.828;4.718;2023-07-02T06:23:43;17.60;99.90
18240;DHT22;9244;50.828;4.718;2023-07-02T06:26:09;17.90;99.90
18240;DHT22;9244;50.828;4.718;2023-07-02T06:28:35;18.60;99.90
18240;DHT22;9244;50.828;4.718;2023-07-02T06:31:00;18.70;99.90
18240;DHT22;9244;50.828;4.718;2023-07-02T06:33:26;18.30;99.90
18240;DHT22;9244;50.828;4.718;2023-07-02T06:35:52;18.00;99.90
18240;DHT22;9244;50.828;4.718;2023-07-02T06:38:17;17.90;99.90
18240;DHT22;9244;50.828;4.718;2023-07-02T06:40:43;17.50;99.90
18240;DHT22;9244;50.828;4.718;2023-07-02T06:43:09;17.40;99.90
18240;DHT22;9244;50.828;4.718;2023-07-02T06:45:35;17.10;99.90
18240;DHT22;9244;50.828;4.718;2023-07-02T06:48:01;17.00;99.90
18240;DHT22;9244;50.828;4.718;2023-07-02T06:50:26;17.00;99.90
18240;DHT22;9244;50.828;4.718;2023-07-02T06:52:52;17.10;99.90
18240;DHT22;9244;50.828;4.718;2023-07-02T06:55:17;17.20;99.90
18240;DHT22;9244;50.828;4.718;2023-07-02T06:57:44;17.40;99.90
18240;DHT22;9244;50.828;4.718;2023-07-02T07:00:12;17.80;99.90
18240;DHT22;9244;50.828;4.718;2023-07-02T07:02:37;18.90;99.90
18240;DHT22;9244;50.828;4.718;2023-07-02T07:05:03;19.10;99.90
18240;DHT22;9244;50.828;4.718;2023-07-02T07:07:29;19.90;99.90
18240;DHT22;9244;50.828;4.718;2023-07-02T07:09:55;21.00;99.90
18240;DHT22;9244;50.828;4.718;2023-07-02T07:12:21;21.70;99.90
18240;DHT22;9244;50.828;4.718;2023-07-02T07:14:46;21.40;99.90
18240;DHT22;9244;50.828;4.718;2023-07-02T07:17:12;20.40;99.90
18240;DHT22;9244;50.828;4.718;2023-07-02T07:19:38;21.10;99.90
18240;DHT22;9244;50.828;4.718;2023-07-02T07:22:03;20.30;99.90
18240;DHT22;9244;50.828;4.718;2023-07-02T07:24:29;19.60;99.90
18240;DHT22;9244;50.828;4.718;2023-07-02T07:26:55;19.20;99.90
18240;DHT22;9244;50.828;4.718;2023-07-02T07:29:22;19.10;99.90
18240;DHT22;9244;50.828;4.718;2023-07-02T07:31:47;19.00;99.90
18240;DHT22;9244;50.828;4.718;2023-07-02T07:34:13;19.00;99.90
18240;DHT22;9244;50.828;4.718;2023-07-02T07:36:39;19.30;99.90
18240;DHT22;9244;50.828;4.718;2023-07-02T07:39:04;19.60;99.90
18240;DHT22;9244;50.828;4.718;2023-07-02T07:41:30;19.50;99.90
18240;DHT22;9244;50.828;4.718;2023-07-02T07:43:55;19.50;99.90
18240;DHT22;9244;50.828;4.718;2023-07-02T07:46:21;19.10;99.90
18240;DHT22;9244;50.828;4.718;2023-07-02T07:48:47;19.20;99.90
18240;DHT22;9244;50.828;4.718;2023-07-02T07:51:12;19.50;99.90
18240;DHT22;9244;50.828;4.718;2023-07-02T07:53:38;19.40;99.90
18240;DHT22;9244;50.828;4.718;2023-07-02T07:56:05;19.40;99.90
18240;DHT22;9244;50.828;4.718;2023-07-02T07:58:31;20.10;99.90
18240;DHT22;9244;50.828;4.718;2023-07-02T08:00:57;20.40;99.90
18240;DHT22;9244;50.828;4.718;2023-07-02T08:03:23;20.80;99.90
18240;DHT22;9244;50.828;4.718;2023-07-02T08:05:49;20.70;99.90
18240;DHT22;9244;50.828;4.718;2023-07-02T08:08:14;20.00;99.90
18240;DHT22;9244;50.828;4.718;2023-07-02T08:10:40;19.80;99.90
18240;DHT22;9244;50.828;4.718;2023-07-02T08:13:06;19.50;99.90
18240;DHT22;9244;50.828;4.718;2023-07-02T08:15:33;19.80;99.90
18240;DHT22;9244;50.828;4.718;2023-07-02T08:17:59;20.40;99.90
18240;DHT22;9244;50.828;4.718;2023-07-02T08:20:25;20.50;99.90
18240;DHT22;9244;50.828;4.718;2023-07-02T08:22:51;20.30;99.90
18240;DHT22;9244;50.828;4.718;2023-07-02T08:25:17;20.10;99.90
18240;DHT22;9244;50.828;4.718;2023-07-02T08:27:43;20.10;99.90
18240;DHT22;9244;50.828;4.718;2023-07-02T08:30:09;20.30;99.90
18240;DHT22;9244;50.828;4.718;2023-07-02T08:32:35;20.60;99.90
18240;DHT22;9244;50.828;4.718;2023-07-02T08:35:01;20.70;99.90
18240;DHT22;9244;50.828;4.718;2023-07-02T08:37:27;20.70;99.90
18240;DHT22;9244;50.828;4.718;2023-07-02T08:39:52;21.30;99.90
18240;DHT22;9244;50.828;4.718;2023-07-02T08:42:18;21.30;99.90
18240;DHT22;9244;50.828;4.718;2023-07-02T08:44:47;21.30;99.90
18240;DHT22;9244;50.828;4.718;2023-07-02T08:47:14;21.10;99.90
18240;DHT22;9244;50.828;4.718;2023-07-02T08:49:41;21.30;99.90
18240;DHT22;9244;50.828;4.718;2023-07-02T08:52:07;21.60;99.90
18240;DHT22;9244;50.828;4.718;2023-07-02T08:54:33;21.30;99.90
18240;DHT22;9244;50.828;4.718;2023-07-02T08:56:58;21.70;99.90
18240;DHT22;9244;50.828;4.718;2023-07-02T08:59:26;22.10;99.90
18240;DHT22;9244;50.828;4.718;2023-07-02T09:01:52;21.80;99.90
18240;DHT22;9244;50.828;4.718;2023-07-02T09:04:27;21.30;99.90
18240;DHT22;9244;50.828;4.718;2023-07-02T09:07:05;20.80;99.90
18240;DHT22;9244;50.828;4.718;2023-07-02T09:09:31;20.20;99.90
18240;DHT22;9244;50.828;4.718;2023-07-02T09:11:57;19.60;99.90
18240;DHT22;9244;50.828;4.718;2023-07-02T09:14:30;19.40;99.90
18240;DHT22;9244;50.828;4.718;2023-07-02T09:17:06;19.00;99.90
18240;DHT22;9244;50.828;4.718;2023-07-02T09:19:32;18.80;99.90
18240;DHT22;9244;50.828;4.718;2023-07-02T09:21:59;18.80;99.90
18240;DHT22;9244;50.828;4.718;2023-07-02T09:24:28;18.80;99.90
18240;DHT22;9244;50.828;4.718;2023-07-02T09:26:59;19.00;99.90
18240;DHT22;9244;50.828;4.718;2023-07-02T09:29:33;18.90;99.90
18240;DHT22;9244;50.828;4.718;2023-07-02T09:32:00;19.20;99.90
18240;DHT22;9244;50.828;4.718;2023-07-02T09:34:29;19.50;99.90
18240;DHT22;9244;50.828;4.718;2023-07-02T09:36:56;19.60;99.90
18240;DHT22;9244;50.828;4.718;2023-07-02T09:39:29;19.80;99.90
18240;DHT22;9244;50.828;4.718;2023-07-02T09:41:56;20.00;99.90
18240;DHT22;9244;50.828;4.718;2023-07-02T09:44:29;19.90;99.90
18240;DHT22;9244;50.828;4.718;2023-07-02T09:47:04;19.90;99.90
18240;DHT22;9244;50.828;4.718;2023-07-02T09:49:38;20.40;99.90
18240;DHT22;9244;50.828;4.718;2023-07-02T09:52:11;20.60;99.90
18240;DHT22;9244;50.828;4.718;2023-07-02T09:54:37;20.60;99.90
18240;DHT22;9244;50.828;4.718;2023-07-02T09:57:04;20.40;99.90
18240;DHT22;9244;50.828;4.718;2023-07-02T09:59:31;20.40;99.90
18240;DHT22;9244;50.828;4.718;2023-07-02T10:01:57;20.40;99.90
18240;DHT22;9244;50.828;4.718;2023-07-02T10:04:23;20.30;99.90
18240;DHT22;9244;50.828;4.718;2023-07-02T10:06:56;20.30;99.90
18240;DHT22;9244;50.828;4.718;2023-07-02T10:09:45;20.10;99.90
18240;DHT22;9244;50.828;4.718;2023-07-02T10:12:27;20.10;99.90
18240;DHT22;9244;50.828;4.718;2023-07-02T10:14:57;20.30;99.90
18240;DHT22;9244;50.828;4.718;2023-07-02T10:17:34;21.30;99.90
18240;DHT22;9244;50.828;4.718;2023-07-02T10:20:01;21.20;99.90
18240;DHT22;9244;50.828;4.718;2023-07-02T10:22:49;20.90;99.90
18240;DHT22;9244;50.828;4.718;2023-07-02T10:25:31;20.80;99.90
18240;DHT22;9244;50.828;4.718;2023-07-02T10:27:58;20.60;99.90
18240;DHT22;9244;50.828;4.718;2023-07-02T10:30:33;20.50;99.90
18240;DHT22;9244;50.828;4.718;2023-07-02T10:33:16;20.40;99.90
18240;DHT22;9244;50.828;4.718;2023-07-02T10:35:44;20.30;99.90
18240;DHT22;9244;50.828;4.718;2023-07-02T10:38:18;20.50;99.90
18240;DHT22;9244;50.828;4.718;2023-07-02T10:40:45;20.50;99.90
18240;DHT22;9244;50.828;4.718;2023-07-02T10:43:10;20.60;99.90
18240;DHT22;9244;50.828;4.718;2023-07-02T10:45:36;20.50;99.90
18240;DHT22;9244;50.828;4.718;2023-07-02T10:48:09;20.20;99.90
18240;DHT22;9244;50.828;4.718;2023-07-02T10:50:35;20.30;99.90
18240;DHT22;9244;50.828;4.718;2023-07-02T10:53:01;20.60;99.90
18240;DHT22;9244;50.828;4.718;2023-07-02T10:55:28;20.50;99.90
18240;DHT22;9244;50.828;4.718;2023-07-02T11:00:29;21.10;99.90
18240;DHT22;9244;50.828;4.718;2023-07-02T11:02:55;21.30;99.90
18240;DHT22;9244;50.828;4.718;2023-07-02T11:05:21;21.20;99.90
18240;DHT22;9244;50.828;4.718;2023-07-02T11:07:47;21.00;99.90
18240;DHT22;9244;50.828;4.718;2023-07-02T11:10:19;21.20;99.90
18240;DHT22;9244;50.828;4.718;2023-07-02T11:12:44;21.30;99.90
18240;DHT22;9244;50.828;4.718;2023-07-02T11:15:12;21.00;99.90
18240;DHT22;9244;50.828;4.718;2023-07-02T11:17:38;21.50;99.90
18240;DHT22;9244;50.828;4.718;2023-07-02T11:20:10;21.60;99.90
18240;DHT22;9244;50.828;4.718;2023-07-02T11:22:37;21.30;99.90
18240;DHT22;9244;50.828;4.718;2023-07-02T11:25:13;21.60;99.90
18240;DHT22;9244;50.828;4.718;2023-07-02T11:27:40;21.80;99.90
18240;DHT22;9244;50.828;4.718;2023-07-02T11:30:06;22.50;99.90
18240;DHT22;9244;50.828;4.718;2023-07-02T11:33:08;22.60;99.90
18240;DHT22;9244;50.828;4.718;2023-07-02T11:35:35;22.30;99.90
18240;DHT22;9244;50.828;4.718;2023-07-02T11:38:01;22.10;99.90
18240;DHT22;9244;50.828;4.718;2023-07-02T11:40:27;21.70;99.90
18240;DHT22;9244;50.828;4.718;2023-07-02T11:42:53;21.10;99.90
18240;DHT22;9244;50.828;4.718;2023-07-02T11:45:18;21.20;99.90
18240;DHT22;9244;50.828;4.718;2023-07-02T11:47:44;21.50;99.90
18240;DHT22;9244;50.828;4.718;2023-07-02T11:50:10;21.70;99.90
18240;DHT22;9244;50.828;4.718;2023-07-02T11:52:36;21.70;99.90
18240;DHT22;9244;50.828;4.718;2023-07-02T11:55:01;21.40;99.90
18240;DHT22;9244;50.828;4.718;2023-07-02T11:57:27;20.90;99.90
18240;DHT22;9244;50.828;4.718;2023-07-02T11:59:53;20.70;99.90
18240;DHT22;9244;50.828;4.718;2023-07-02T12:02:19;20.70;99.90
18240;DHT22;9244;50.828;4.718;2023-07-02T12:04:44;20.90;99.90
18240;DHT22;9244;50.828;4.718;2023-07-02T12:07:10;21.10;99.90
18240;DHT22;9244;50.828;4.718;2023-07-02T12:09:36;21.10;99.90
18240;DHT22;9244;50.828;4.718;2023-07-02T12:12:02;21.20;99.90
18240;DHT22;9244;50.828;4.718;2023-07-02T12:14:28;21.30;99.90
18240;DHT22;9244;50.828;4.718;2023-07-02T12:16:54;21.30;99.90
18240;DHT22;9244;50.828;4.718;2023-07-02T12:19:19;22.10;99.90
18240;DHT22;9244;50.828;4.718;2023-07-02T12:21:45;22.70;99.90
18240;DHT22;9244;50.828;4.718;2023-07-02T12:24:10;23.30;99.90
18240;DHT22;9244;50.828;4.718;2023-07-02T12:26:37;23.80;99.90
18240;DHT22;9244;50.828;4.718;2023-07-02T12:29:03;24.10;99.90
18240;DHT22;9244;50.828;4.718;2023-07-02T12:31:29;23.80;99.90
18240;DHT22;9244;50.828;4.718;2023-07-02T12:33:55;24.10;99.90
18240;DHT22;9244;50.828;4.718;2023-07-02T12:36:21;24.00;99.90
18240;DHT22;9244;50.828;4.718;2023-07-02T12:38:46;23.90;99.90
18240;DHT22;9244;50.828;4.718;2023-07-02T12:41:12;23.70;99.90
18240;DHT22;9244;50.828;4.718;2023-07-02T12:43:38;23.20;99.90
18240;DHT22;9244;50.828;4.718;2023-07-02T12:46:03;23.20;99.90
18240;DHT22;9244;50.828;4.718;2023-07-02T12:48:29;22.90;99.90
18240;DHT22;9244;50.828;4.718;2023-07-02T12:50:59;22.40;99.90
18240;DHT22;9244;50.828;4.718;2023-07-02T12:53:26;22.60;99.90
18240;DHT22;9244;50.828;4.718;2023-07-02T12:55:52;22.50;99.90
18240;DHT22;9244;50.828;4.718;2023-07-02T12:58:18;22.20;99.90
18240;DHT22;9244;50.828;4.718;2023-07-02T13:00:44;22.30;99.90
18240;DHT22;9244;50.828;4.718;2023-07-02T13:03:12;22.80;99.90
18240;DHT22;9244;50.828;4.718;2023-07-02T13:05:38;23.20;99.90
18240;DHT22;9244;50.828;4.718;2023-07-02T13:08:05;23.10;99.90
18240;DHT22;9244;50.828;4.718;2023-07-02T13:10:32;23.20;99.90
18240;DHT22;9244;50.828;4.718;2023-07-02T13:12:58;23.00;99.90
18240;DHT22;9244;50.828;4.718;2023-07-02T13:15:24;22.90;99.90
18240;DHT22;9244;50.828;4.718;2023-07-02T13:17:50;22.40;99.90
18240;DHT22;9244;50.828;4.718;2023-07-02T13:20:16;22.60;99.90
18240;DHT22;9244;50.828;4.718;2023-07-02T13:22:42;23.10;99.90
18240;DHT22;9244;50.828;4.718;2023-07-02T13:25:07;22.80;99.90
18240;DHT22;9244;50.828;4.718;2023-07-02T13:27:33;22.20;99.90
18240;DHT22;9244;50.828;4.718;2023-07-02T13:29:59;22.60;99.90
18240;DHT22;9244;50.828;4.718;2023-07-02T13:32:24;23.10;99.90
18240;DHT22;9244;50.828;4.718;2023-07-02T13:34:51;23.10;99.90
18240;DHT22;9244;50.828;4.718;2023-07-02T13:37:17;23.40;99.90
18240;DHT22;9244;50.828;4.718;2023-07-02T13:39:46;23.30;99.90
18240;DHT22;9244;50.828;4.718;2023-07-02T13:42:12;23.50;99.90
18240;DHT22;9244;50.828;4.718;2023-07-02T13:44:37;23.30;99.90
18240;DHT22;9244;50.828;4.718;2023-07-02T13:47:03;23.50;99.90
18240;DHT22;9244;50.828;4.718;2023-07-02T13:49:30;23.50;99.90
18240;DHT22;9244;50.828;4.718;2023-07-02T13:51:56;23.60;99.90
18240;DHT22;9244;50.828;4.718;2023-07-02T13:54:21;23.50;99.90
18240;DHT22;9244;50.828;4.718;2023-07-02T13:56:47;23.80;99.90
18240;DHT22;9244;50.828;4.718;2023-07-02T13:59:13;23.10;99.90
18240;DHT22;9244;50.828;4.718;2023-07-02T14:01:39;22.70;99.90
18240;DHT22;9244;50.828;4.718;2023-07-02T14:04:05;22.60;99.90
18240;DHT22;9244;50.828;4.718;2023-07-02T14:06:31;22.40;99.90
18240;DHT22;9244;50.828;4.718;2023-07-02T14:08:57;22.20;99.90
18240;DHT22;9244;50.828;4.718;2023-07-02T14:11:24;22.00;99.90
18240;DHT22;9244;50.828;4.718;2023-07-02T14:13:50;22.10;99.90
18240;DHT22;9244;50.828;4.718;2023-07-02T14:16:15;22.40;99.90
18240;DHT22;9244;50.828;4.718;2023-07-02T14:18:41;22.50;99.90
18240;DHT22;9244;50.828;4.718;2023-07-02T14:21:07;22.90;99.90
18240;DHT22;9244;50.828;4.718;2023-07-02T14:23:32;23.20;99.90
18240;DHT22;9244;50.828;4.718;2023-07-02T14:25:58;23.10;99.90
18240;DHT22;9244;50.828;4.718;2023-07-02T14:28:24;22.70;99.90
18240;DHT22;9244;50.828;4.718;2023-07-02T14:30:59;22.40;99.90
18240;DHT22;9244;50.828;4.718;2023-07-02T14:33:26;22.30;99.90
18240;DHT22;9244;50.828;4.718;2023-07-02T14:35:53;22.20;99.90
18240;DHT22;9244;50.828;4.718;2023-07-02T14:38:19;22.30;99.90
18240;DHT22;9244;50.828;4.718;2023-07-02T14:40:45;22.20;99.90
18240;DHT22;9244;50.828;4.718;2023-07-02T14:43:10;22.40;99.90
18240;DHT22;9244;50.828;4.718;2023-07-02T14:45:46;22.60;99.90
18240;DHT22;9244;50.828;4.718;2023-07-02T14:48:12;22.30;99.90
18240;DHT22;9244;50.828;4.718;2023-07-02T14:50:48;22.30;99.90
18240;DHT22;9244;50.828;4.718;2023-07-02T14:53:15;22.30;99.90
18240;DHT22;9244;50.828;4.718;2023-07-02T14:55:40;22.20;99.90
18240;DHT22;9244;50.828;4.718;2023-07-02T14:58:06;22.20;99.90
18240;DHT22;9244;50.828;4.718;2023-07-02T15:00:32;22.10;99.90
18240;DHT22;9244;50.828;4.718;2023-07-02T15:02:58;22.10;99.90
18240;DHT22;9244;50.828;4.718;2023-07-02T15:05:24;22.50;99.90
18240;DHT22;9244;50.828;4.718;2023-07-02T15:07:50;22.80;99.90
18240;DHT22;9244;50.828;4.718;2023-07-02T15:10:17;22.60;99.90
18240;DHT22;9244;50.828;4.718;2023-07-02T15:12:43;22.30;99.90
18240;DHT22;9244;50.828;4.718;2023-07-02T15:15:09;22.00;99.90
18240;DHT22;9244;50.828;4.718;2023-07-02T15:17:35;21.90;99.90
18240;DHT22;9244;50.828;4.718;2023-07-02T15:20:01;22.00;99.90
18240;DHT22;9244;50.828;4.718;2023-07-02T15:22:29;22.20;99.90
18240;DHT22;9244;50.828;4.718;2023-07-02T15:24:55;22.60;99.90
18240;DHT22;9244;50.828;4.718;2023-07-02T15:27:20;22.90;99.90
18240;DHT22;9244;50.828;4.718;2023-07-02T15:29:46;22.80;99.90
18240;DHT22;9244;50.828;4.718;2023-07-02T15:32:11;22.70;99.90
18240;DHT22;9244;50.828;4.718;2023-07-02T15:34:37;22.90;99.90
18240;DHT22;9244;50.828;4.718;2023-07-02T15:37:03;23.00;99.90
18240;DHT22;9244;50.828;4.718;2023-07-02T15:39:28;22.60;99.90
18240;DHT22;9244;50.828;4.718;2023-07-02T15:41:58;22.30;99.90
18240;DHT22;9244;50.828;4.718;2023-07-02T15:44:25;22.10;99.90
18240;DHT22;9244;50.828;4.718;2023-07-02T15:46:51;21.80;99.90